sensor_id;sensor_type;location;lat;lon;timestamp;P1;durP1;ratioP1;P2;durP2;ratioP2
50219;SDS011;36110;51.536;7.562;2024-02-26T00:00:05;4.90;;;3.00;;
50219;SDS011;36110;51.536;7.562;2024-02-26T00:02:34;4.13;;;2.42;;
50219;SDS011;36110;51.536;7.562;2024-02-26T00:05:03;4.47;;;3.17;;
50219;SDS011;36110;51.536;7.562;2024-02-26T00:07:32;4.35;;;2.92;;
50219;SDS011;36110;51.536;7.562;2024-02-26T00:09:57;4.78;;;2.83;;
50219;SDS011;36110;51.536;7.562;2024-02-26T00:12:22;4.22;;;2.88;;
50219;SDS011;36110;51.536;7.562;2024-02-26T00:14:47;2.53;;;2.33;;
50219;SDS011;36110;51.536;7.562;2024-02-26T00:17:14;2.95;;;2.58;;
50219;SDS011;36110;51.536;7.562;2024-02-26T00:19:40;7.88;;;3.33;;
50219;SDS011;36110;51.536;7.562;2024-02-26T00:22:05;5.72;;;3.08;;
50219;SDS011;36110;51.536;7.562;2024-02-26T00:24:30;5.68;;;3.50;;
50219;SDS011;36110;51.536;7.562;2024-02-26T00:26:56;4.70;;;3.72;;
50219;SDS011;36110;51.536;7.562;2024-02-26T00:29:21;2.00;;;1.77;;
50219;SDS011;36110;51.536;7.562;2024-02-26T00:31:47;6.38;;;4.32;;
50219;SDS011;36110;51.536;7.562;2024-02-26T00:34:12;5.00;;;3.53;;
50219;SDS011;36110;51.536;7.562;2024-02-26T00:36:37;1.92;;;1.77;;
50219;SDS011;36110;51.536;7.562;2024-02-26T00:39:02;5.90;;;3.90;;
50219;SDS011;36110;51.536;7.562;2024-02-26T00:41:28;5.78;;;3.70;;
50219;SDS011;36110;51.536;7.562;2024-02-26T00:43:54;6.20;;;3.50;;
50219;SDS011;36110;51.536;7.562;2024-02-26T00:46:19;3.88;;;3.40;;
50219;SDS011;36110;51.536;7.562;2024-02-26T00:48:44;4.13;;;3.70;;
50219;SDS011;36110;51.536;7.562;2024-02-26T00:51:10;3.53;;;2.63;;
50219;SDS011;36110;51.536;7.562;2024-02-26T00:53:35;6.30;;;3.35;;
50219;SDS011;36110;51.536;7.562;2024-02-26T00:56:00;4.68;;;3.80;;
50219;SDS011;36110;51.536;7.562;2024-02-26T00:58:26;4.13;;;3.50;;
50219;SDS011;36110;51.536;7.562;2024-02-26T01:00:52;4.35;;;3.05;;
50219;SDS011;36110;51.536;7.562;2024-02-26T01:03:17;5.00;;;2.90;;
50219;SDS011;36110;51.536;7.562;2024-02-26T01:05:42;3.22;;;2.92;;
50219;SDS011;36110;51.536;7.562;2024-02-26T01:08:08;4.43;;;3.30;;
50219;SDS011;36110;51.536;7.562;2024-02-26T01:10:33;4.03;;;3.40;;
50219;SDS011;36110;51.536;7.562;2024-02-26T01:12:59;4.20;;;3.22;;
50219;SDS011;36110;51.536;7.562;2024-02-26T01:15:24;3.30;;;3.00;;
50219;SDS011;36110;51.536;7.562;2024-02-26T01:17:50;2.78;;;1.75;;
50219;SDS011;36110;51.536;7.562;2024-02-26T01:20:16;5.63;;;3.10;;
50219;SDS011;36110;51.536;7.562;2024-02-26T01:22:42;2.75;;;2.55;;
50219;SDS011;36110;51.536;7.562;2024-02-26T01:25:08;3.67;;;3.00;;
50219;SDS011;36110;51.536;7.562;2024-02-26T01:27:34;3.70;;;2.70;;
50219;SDS011;36110;51.536;7.562;2024-02-26T01:30:00;3.75;;;2.88;;
50219;SDS011;36110;51.536;7.562;2024-02-26T01:32:25;2.65;;;2.17;;
50219;SDS011;36110;51.536;7.562;2024-02-26T01:34:51;4.35;;;2.90;;
50219;SDS011;36110;51.536;7.562;2024-02-26T01:37:16;2.47;;;2.20;;
50219;SDS011;36110;51.536;7.562;2024-02-26T01:39:41;3.42;;;2.60;;
50219;SDS011;36110;51.536;7.562;2024-02-26T01:42:07;2.85;;;2.47;;
50219;SDS011;36110;51.536;7.562;2024-02-26T01:44:32;1.80;;;1.65;;
50219;SDS011;36110;51.536;7.562;2024-02-26T01:46:58;3.08;;;2.28;;
50219;SDS011;36110;51.536;7.562;2024-02-26T01:49:23;3.63;;;1.95;;
50219;SDS011;36110;51.536;7.562;2024-02-26T01:51:51;1.92;;;1.73;;
50219;SDS011;36110;51.536;7.562;2024-02-26T01:54:17;3.05;;;1.90;;
50219;SDS011;36110;51.536;7.562;2024-02-26T01:56:43;1.80;;;1.65;;
50219;SDS011;36110;51.536;7.562;2024-02-26T01:59:09;2.58;;;2.30;;
50219;SDS011;36110;51.536;7.562;2024-02-26T02:01:35;1.27;;;1.15;;
50219;SDS011;36110;51.536;7.562;2024-02-26T02:04:01;3.03;;;1.80;;
50219;SDS011;36110;51.536;7.562;2024-02-26T02:06:26;3.35;;;2.30;;
50219;SDS011;36110;51.536;7.562;2024-02-26T02:08:54;2.60;;;2.28;;
50219;SDS011;36110;51.536;7.562;2024-02-26T02:11:19;2.08;;;1.90;;
50219;SDS011;36110;51.536;7.562;2024-02-26T02:13:44;3.78;;;2.50;;
50219;SDS011;36110;51.536;7.562;2024-02-26T02:16:10;4.00;;;2.28;;
50219;SDS011;36110;51.536;7.562;2024-02-26T02:18:35;2.40;;;2.08;;
50219;SDS011;36110;51.536;7.562;2024-02-26T02:21:01;2.80;;;2.33;;
50219;SDS011;36110;51.536;7.562;2024-02-26T02:23:26;4.32;;;2.40;;
50219;SDS011;36110;51.536;7.562;2024-02-26T02:25:52;2.63;;;2.10;;
50219;SDS011;36110;51.536;7.562;2024-02-26T02:28:18;3.63;;;2.05;;
50219;SDS011;36110;51.536;7.562;2024-02-26T02:30:44;4.20;;;1.92;;
50219;SDS011;36110;51.536;7.562;2024-02-26T02:33:12;2.97;;;2.25;;
50219;SDS011;36110;51.536;7.562;2024-02-26T02:35:38;1.48;;;1.38;;
50219;SDS011;36110;51.536;7.562;2024-02-26T02:38:03;1.48;;;1.38;;
50219;SDS011;36110;51.536;7.562;2024-02-26T02:40:29;2.80;;;2.13;;
50219;SDS011;36110;51.536;7.562;2024-02-26T02:42:54;1.90;;;1.80;;
50219;SDS011;36110;51.536;7.562;2024-02-26T02:45:19;1.88;;;1.77;;
50219;SDS011;36110;51.536;7.562;2024-02-26T02:47:45;2.20;;;2.00;;
50219;SDS011;36110;51.536;7.562;2024-02-26T02:50:10;1.75;;;1.65;;
50219;SDS011;36110;51.536;7.562;2024-02-26T02:52:35;3.17;;;2.10;;
50219;SDS011;36110;51.536;7.562;2024-02-26T02:55:01;3.38;;;2.08;;
50219;SDS011;36110;51.536;7.562;2024-02-26T02:57:26;2.55;;;1.92;;
50219;SDS011;36110;51.536;7.562;2024-02-26T02:59:51;1.95;;;1.70;;
50219;SDS011;36110;51.536;7.562;2024-02-26T03:02:17;2.45;;;1.88;;
50219;SDS011;36110;51.536;7.562;2024-02-26T03:04:42;2.25;;;1.90;;
50219;SDS011;36110;51.536;7.562;2024-02-26T03:07:08;2.35;;;1.95;;
50219;SDS011;36110;51.536;7.562;2024-02-26T03:09:33;1.80;;;1.65;;
50219;SDS011;36110;51.536;7.562;2024-02-26T03:11:58;2.90;;;1.98;;
50219;SDS011;36110;51.536;7.562;2024-02-26T03:14:24;2.53;;;1.52;;
50219;SDS011;36110;51.536;7.562;2024-02-26T03:16:53;2.25;;;1.90;;
50219;SDS011;36110;51.536;7.562;2024-02-26T03:19:19;4.32;;;1.77;;
50219;SDS011;36110;51.536;7.562;2024-02-26T03:21:45;3.45;;;2.00;;
50219;SDS011;36110;51.536;7.562;2024-02-26T03:24:10;3.28;;;1.80;;
50219;SDS011;36110;51.536;7.562;2024-02-26T03:26:37;2.08;;;1.80;;
50219;SDS011;36110;51.536;7.562;2024-02-26T03:29:02;1.70;;;1.60;;
50219;SDS011;36110;51.536;7.562;2024-02-26T03:31:28;2.22;;;1.52;;
50219;SDS011;36110;51.536;7.562;2024-02-26T03:33:53;2.83;;;1.75;;
50219;SDS011;36110;51.536;7.562;2024-02-26T03:36:18;3.03;;;1.80;;
50219;SDS011;36110;51.536;7.562;2024-02-26T03:38:44;1.35;;;1.23;;
50219;SDS011;36110;51.536;7.562;2024-02-26T03:41:09;2.08;;;1.52;;
50219;SDS011;36110;51.536;7.562;2024-02-26T03:43:35;2.58;;;1.92;;
50219;SDS011;36110;51.536;7.562;2024-02-26T03:46:00;1.90;;;1.80;;
50219;SDS011;36110;51.536;7.562;2024-02-26T03:48:26;2.75;;;1.77;;
50219;SDS011;36110;51.536;7.562;2024-02-26T03:50:52;2.45;;;2.25;;
50219;SDS011;36110;51.536;7.562;2024-02-26T03:53:17;2.10;;;1.65;;
50219;SDS011;36110;51.536;7.562;2024-02-26T03:55:43;6.32;;;2.05;;
50219;SDS011;36110;51.536;7.562;2024-02-26T03:58:08;2.00;;;1.60;;
50219;SDS011;36110;51.536;7.562;2024-02-26T04:00:34;2.97;;;1.80;;
50219;SDS011;36110;51.536;7.562;2024-02-26T04:02:59;2.60;;;1.65;;
50219;SDS011;36110;51.536;7.562;2024-02-26T04:05:25;2.28;;;1.38;;
50219;SDS011;36110;51.536;7.562;2024-02-26T04:07:50;2.20;;;2.00;;
50219;SDS011;36110;51.536;7.562;2024-02-26T04:10:15;2.55;;;2.10;;
50219;SDS011;36110;51.536;7.562;2024-02-26T04:12:41;3.45;;;2.33;;
50219;SDS011;36110;51.536;7.562;2024-02-26T04:15:10;2.47;;;2.25;;
50219;SDS011;36110;51.536;7.562;2024-02-26T04:17:36;3.53;;;2.13;;
50219;SDS011;36110;51.536;7.562;2024-02-26T04:20:01;4.30;;;2.05;;
50219;SDS011;36110;51.536;7.562;2024-02-26T04:22:27;2.83;;;2.25;;
50219;SDS011;36110;51.536;7.562;2024-02-26T04:24:52;4.07;;;2.30;;
50219;SDS011;36110;51.536;7.562;2024-02-26T04:27:18;5.55;;;2.55;;
50219;SDS011;36110;51.536;7.562;2024-02-26T04:29:43;3.90;;;2.90;;
50219;SDS011;36110;51.536;7.562;2024-02-26T04:32:08;2.53;;;2.20;;
50219;SDS011;36110;51.536;7.562;2024-02-26T04:34:34;2.13;;;1.70;;
50219;SDS011;36110;51.536;7.562;2024-02-26T04:36:59;4.38;;;2.72;;
50219;SDS011;36110;51.536;7.562;2024-02-26T04:39:24;2.80;;;2.15;;
50219;SDS011;36110;51.536;7.562;2024-02-26T04:41:51;2.47;;;2.28;;
50219;SDS011;36110;51.536;7.562;2024-02-26T04:44:16;1.95;;;1.80;;
50219;SDS011;36110;51.536;7.562;2024-02-26T04:46:41;1.25;;;1.15;;
50219;SDS011;36110;51.536;7.562;2024-02-26T04:49:07;2.00;;;1.90;;
50219;SDS011;36110;51.536;7.562;2024-02-26T04:51:32;1.63;;;1.52;;
50219;SDS011;36110;51.536;7.562;2024-02-26T04:53:57;2.05;;;1.70;;
50219;SDS011;36110;51.536;7.562;2024-02-26T04:56:22;2.20;;;1.27;;
50219;SDS011;36110;51.536;7.562;2024-02-26T04:58:48;2.58;;;1.75;;
50219;SDS011;36110;51.536;7.562;2024-02-26T05:01:13;5.20;;;2.08;;
50219;SDS011;36110;51.536;7.562;2024-02-26T05:03:41;3.03;;;1.88;;
50219;SDS011;36110;51.536;7.562;2024-02-26T05:06:06;1.40;;;1.13;;
50219;SDS011;36110;51.536;7.562;2024-02-26T05:08:31;1.70;;;1.60;;
50219;SDS011;36110;51.536;7.562;2024-02-26T05:10:58;2.25;;;1.80;;
50219;SDS011;36110;51.536;7.562;2024-02-26T05:13:25;2.08;;;1.48;;
50219;SDS011;36110;51.536;7.562;2024-02-26T05:15:50;2.28;;;1.63;;
50219;SDS011;36110;51.536;7.562;2024-02-26T05:18:17;1.50;;;1.40;;
50219;SDS011;36110;51.536;7.562;2024-02-26T05:20:42;2.00;;;1.80;;
50219;SDS011;36110;51.536;7.562;2024-02-26T05:23:08;4.05;;;2.25;;
50219;SDS011;36110;51.536;7.562;2024-02-26T05:25:34;2.60;;;2.40;;
50219;SDS011;36110;51.536;7.562;2024-02-26T05:27:59;2.47;;;2.28;;
50219;SDS011;36110;51.536;7.562;2024-02-26T05:30:25;4.60;;;2.17;;
50219;SDS011;36110;51.536;7.562;2024-02-26T05:32:53;3.08;;;2.35;;
50219;SDS011;36110;51.536;7.562;2024-02-26T05:35:18;2.15;;;1.95;;
50219;SDS011;36110;51.536;7.562;2024-02-26T05:37:43;2.50;;;1.83;;
50219;SDS011;36110;51.536;7.562;2024-02-26T05:40:09;3.55;;;2.30;;
50219;SDS011;36110;51.536;7.562;2024-02-26T05:42:35;1.25;;;1.15;;
50219;SDS011;36110;51.536;7.562;2024-02-26T05:45:00;3.00;;;2.65;;
50219;SDS011;36110;51.536;7.562;2024-02-26T05:47:31;2.30;;;2.05;;
50219;SDS011;36110;51.536;7.562;2024-02-26T05:49:59;1.58;;;1.40;;
50219;SDS011;36110;51.536;7.562;2024-02-26T05:52:25;2.95;;;2.65;;
50219;SDS011;36110;51.536;7.562;2024-02-26T05:54:51;2.88;;;2.40;;
50219;SDS011;36110;51.536;7.562;2024-02-26T05:57:16;4.53;;;2.80;;
50219;SDS011;36110;51.536;7.562;2024-02-26T05:59:43;16.23;;;2.97;;
50219;SDS011;36110;51.536;7.562;2024-02-26T06:02:09;2.47;;;2.22;;
50219;SDS011;36110;51.536;7.562;2024-02-26T06:04:34;3.38;;;2.88;;
50219;SDS011;36110;51.536;7.562;2024-02-26T06:06:59;3.88;;;3.03;;
50219;SDS011;36110;51.536;7.562;2024-02-26T06:09:25;4.68;;;3.58;;
50219;SDS011;36110;51.536;7.562;2024-02-26T06:11:50;3.30;;;2.95;;
50219;SDS011;36110;51.536;7.562;2024-02-26T06:14:16;2.55;;;2.35;;
50219;SDS011;36110;51.536;7.562;2024-02-26T06:16:43;5.63;;;3.33;;
50219;SDS011;36110;51.536;7.562;2024-02-26T06:19:09;4.90;;;3.67;;
50219;SDS011;36110;51.536;7.562;2024-02-26T06:21:34;2.70;;;2.42;;
50219;SDS011;36110;51.536;7.562;2024-02-26T06:24:00;2.88;;;2.22;;
50219;SDS011;36110;51.536;7.562;2024-02-26T06:26:26;4.60;;;3.00;;
50219;SDS011;36110;51.536;7.562;2024-02-26T06:28:53;3.70;;;3.15;;
50219;SDS011;36110;51.536;7.562;2024-02-26T06:31:19;4.47;;;2.90;;
50219;SDS011;36110;51.536;7.562;2024-02-26T06:33:46;3.22;;;2.70;;
50219;SDS011;36110;51.536;7.562;2024-02-26T06:36:11;3.72;;;2.70;;
50219;SDS011;36110;51.536;7.562;2024-02-26T06:38:37;3.35;;;3.05;;
50219;SDS011;36110;51.536;7.562;2024-02-26T06:41:02;3.60;;;2.42;;
50219;SDS011;36110;51.536;7.562;2024-02-26T06:43:28;3.95;;;2.80;;
50219;SDS011;36110;51.536;7.562;2024-02-26T06:45:53;5.22;;;2.97;;
50219;SDS011;36110;51.536;7.562;2024-02-26T06:48:19;4.05;;;2.45;;
50219;SDS011;36110;51.536;7.562;2024-02-26T06:50:44;3.13;;;2.83;;
50219;SDS011;36110;51.536;7.562;2024-02-26T06:53:09;3.13;;;2.83;;
50219;SDS011;36110;51.536;7.562;2024-02-26T06:55:35;3.25;;;2.72;;
50219;SDS011;36110;51.536;7.562;2024-02-26T06:58:02;3.33;;;3.03;;
50219;SDS011;36110;51.536;7.562;2024-02-26T07:00:27;3.67;;;2.90;;
50219;SDS011;36110;51.536;7.562;2024-02-26T07:02:53;4.10;;;3.00;;
50219;SDS011;36110;51.536;7.562;2024-02-26T07:05:18;2.80;;;2.58;;
50219;SDS011;36110;51.536;7.562;2024-02-26T07:07:44;3.65;;;3.17;;
50219;SDS011;36110;51.536;7.562;2024-02-26T07:10:09;4.40;;;3.25;;
50219;SDS011;36110;51.536;7.562;2024-02-26T07:12:37;4.18;;;3.40;;
50219;SDS011;36110;51.536;7.562;2024-02-26T07:15:03;3.08;;;2.50;;
50219;SDS011;36110;51.536;7.562;2024-02-26T07:17:30;5.25;;;3.20;;
50219;SDS011;36110;51.536;7.562;2024-02-26T07:19:55;4.25;;;2.92;;
50219;SDS011;36110;51.536;7.562;2024-02-26T07:22:20;4.07;;;2.55;;
50219;SDS011;36110;51.536;7.562;2024-02-26T07:24:46;3.85;;;2.85;;
50219;SDS011;36110;51.536;7.562;2024-02-26T07:27:11;6.38;;;3.30;;
50219;SDS011;36110;51.536;7.562;2024-02-26T07:29:36;4.68;;;3.22;;
50219;SDS011;36110;51.536;7.562;2024-02-26T07:32:04;8.02;;;3.00;;
50219;SDS011;36110;51.536;7.562;2024-02-26T07:34:30;7.68;;;3.80;;
50219;SDS011;36110;51.536;7.562;2024-02-26T07:36:56;4.28;;;3.22;;
50219;SDS011;36110;51.536;7.562;2024-02-26T07:39:21;5.07;;;2.75;;
50219;SDS011;36110;51.536;7.562;2024-02-26T07:41:47;5.22;;;3.00;;
50219;SDS011;36110;51.536;7.562;2024-02-26T07:44:14;4.22;;;3.05;;
50219;SDS011;36110;51.536;7.562;2024-02-26T07:46:40;3.45;;;3.03;;
50219;SDS011;36110;51.536;7.562;2024-02-26T07:49:05;4.53;;;3.38;;
50219;SDS011;36110;51.536;7.562;2024-02-26T07:51:31;5.25;;;3.40;;
50219;SDS011;36110;51.536;7.562;2024-02-26T07:53:56;3.95;;;3.28;;
50219;SDS011;36110;51.536;7.562;2024-02-26T07:56:22;5.03;;;2.42;;
50219;SDS011;36110;51.536;7.562;2024-02-26T07:58:47;2.95;;;2.67;;
50219;SDS011;36110;51.536;7.562;2024-02-26T08:01:13;4.72;;;3.00;;
50219;SDS011;36110;51.536;7.562;2024-02-26T08:03:39;5.72;;;3.13;;
50219;SDS011;36110;51.536;7.562;2024-02-26T08:06:04;5.45;;;3.28;;
50219;SDS011;36110;51.536;7.562;2024-02-26T08:08:30;3.97;;;3.50;;
50219;SDS011;36110;51.536;7.562;2024-02-26T08:10:55;3.35;;;2.60;;
50219;SDS011;36110;51.536;7.562;2024-02-26T08:13:20;3.58;;;3.20;;
50219;SDS011;36110;51.536;7.562;2024-02-26T08:15:46;2.22;;;2.03;;
50219;SDS011;36110;51.536;7.562;2024-02-26T08:18:11;4.18;;;3.00;;
50219;SDS011;36110;51.536;7.562;2024-02-26T08:20:36;7.03;;;3.50;;
50219;SDS011;36110;51.536;7.562;2024-02-26T08:23:02;4.75;;;3.58;;
50219;SDS011;36110;51.536;7.562;2024-02-26T08:25:27;6.88;;;3.72;;
50219;SDS011;36110;51.536;7.562;2024-02-26T08:27:53;3.72;;;2.92;;
50219;SDS011;36110;51.536;7.562;2024-02-26T08:30:18;5.70;;;3.85;;
50219;SDS011;36110;51.536;7.562;2024-02-26T08:32:44;6.82;;;3.85;;
50219;SDS011;36110;51.536;7.562;2024-02-26T08:35:10;3.70;;;2.92;;
50219;SDS011;36110;51.536;7.562;2024-02-26T08:37:36;2.83;;;2.38;;
50219;SDS011;36110;51.536;7.562;2024-02-26T08:40:01;3.70;;;3.30;;
50219;SDS011;36110;51.536;7.562;2024-02-26T08:42:28;4.43;;;3.63;;
50219;SDS011;36110;51.536;7.562;2024-02-26T08:44:54;4.38;;;3.92;;
50219;SDS011;36110;51.536;7.562;2024-02-26T08:47:20;5.97;;;4.03;;
50219;SDS011;36110;51.536;7.562;2024-02-26T08:49:46;5.57;;;4.05;;
50219;SDS011;36110;51.536;7.562;2024-02-26T08:52:11;3.42;;;2.45;;
50219;SDS011;36110;51.536;7.562;2024-02-26T08:54:36;6.57;;;4.40;;
50219;SDS011;36110;51.536;7.562;2024-02-26T08:57:02;4.40;;;3.83;;
50219;SDS011;36110;51.536;7.562;2024-02-26T08:59:30;5.57;;;2.70;;
50219;SDS011;36110;51.536;7.562;2024-02-26T09:01:56;3.72;;;2.90;;
50219;SDS011;36110;51.536;7.562;2024-02-26T09:04:21;6.55;;;4.38;;
50219;SDS011;36110;51.536;7.562;2024-02-26T09:06:46;7.20;;;4.32;;
50219;SDS011;36110;51.536;7.562;2024-02-26T09:09:12;5.90;;;4.43;;
50219;SDS011;36110;51.536;7.562;2024-02-26T09:11:37;4.28;;;3.88;;
50219;SDS011;36110;51.536;7.562;2024-02-26T09:14:02;5.50;;;3.50;;
50219;SDS011;36110;51.536;7.562;2024-02-26T09:16:28;5.85;;;3.42;;
50219;SDS011;36110;51.536;7.562;2024-02-26T09:18:54;5.03;;;3.88;;
50219;SDS011;36110;51.536;7.562;2024-02-26T09:21:19;5.85;;;4.22;;
50219;SDS011;36110;51.536;7.562;2024-02-26T09:23:48;5.97;;;4.50;;
50219;SDS011;36110;51.536;7.562;2024-02-26T09:26:14;5.93;;;4.18;;
50219;SDS011;36110;51.536;7.562;2024-02-26T09:28:40;5.00;;;3.83;;
50219;SDS011;36110;51.536;7.562;2024-02-26T09:31:05;5.20;;;4.03;;
50219;SDS011;36110;51.536;7.562;2024-02-26T09:33:31;5.10;;;3.85;;
50219;SDS011;36110;51.536;7.562;2024-02-26T09:35:57;6.90;;;5.00;;
50219;SDS011;36110;51.536;7.562;2024-02-26T09:38:23;3.47;;;2.90;;
50219;SDS011;36110;51.536;7.562;2024-02-26T09:40:49;4.95;;;3.92;;
50219;SDS011;36110;51.536;7.562;2024-02-26T09:43:15;6.80;;;5.18;;
50219;SDS011;36110;51.536;7.562;2024-02-26T09:45:42;9.73;;;4.40;;
50219;SDS011;36110;51.536;7.562;2024-02-26T09:48:08;5.97;;;5.00;;
50219;SDS011;36110;51.536;7.562;2024-02-26T09:50:33;6.35;;;4.70;;
50219;SDS011;36110;51.536;7.562;2024-02-26T09:52:59;2.42;;;2.22;;
50219;SDS011;36110;51.536;7.562;2024-02-26T09:55:27;3.92;;;3.58;;
50219;SDS011;36110;51.536;7.562;2024-02-26T09:57:53;6.35;;;4.70;;
50219;SDS011;36110;51.536;7.562;2024-02-26T10:00:19;8.32;;;6.40;;
50219;SDS011;36110;51.536;7.562;2024-02-26T10:02:46;7.35;;;5.43;;
50219;SDS011;36110;51.536;7.562;2024-02-26T10:05:18;8.80;;;5.50;;
50219;SDS011;36110;51.536;7.562;2024-02-26T10:07:44;10.73;;;5.50;;
50219;SDS011;36110;51.536;7.562;2024-02-26T10:10:13;8.80;;;6.10;;
50219;SDS011;36110;51.536;7.562;2024-02-26T10:12:39;8.75;;;5.80;;
50219;SDS011;36110;51.536;7.562;2024-02-26T10:15:04;8.38;;;5.63;;
50219;SDS011;36110;51.536;7.562;2024-02-26T10:17:32;6.65;;;5.43;;
50219;SDS011;36110;51.536;7.562;2024-02-26T10:20:11;4.53;;;3.90;;
50219;SDS011;36110;51.536;7.562;2024-02-26T10:22:37;9.30;;;5.30;;
50219;SDS011;36110;51.536;7.562;2024-02-26T10:25:02;7.53;;;5.40;;
50219;SDS011;36110;51.536;7.562;2024-02-26T10:27:28;7.28;;;5.72;;
50219;SDS011;36110;51.536;7.562;2024-02-26T10:29:56;8.10;;;5.35;;
50219;SDS011;36110;51.536;7.562;2024-02-26T10:32:22;3.22;;;2.92;;
50219;SDS011;36110;51.536;7.562;2024-02-26T10:34:47;7.70;;;5.78;;
50219;SDS011;36110;51.536;7.562;2024-02-26T10:37:12;9.63;;;6.07;;
50219;SDS011;36110;51.536;7.562;2024-02-26T10:39:38;8.80;;;6.90;;
50219;SDS011;36110;51.536;7.562;2024-02-26T10:42:04;10.07;;;6.40;;
50219;SDS011;36110;51.536;7.562;2024-02-26T10:44:34;10.48;;;7.68;;
50219;SDS011;36110;51.536;7.562;2024-02-26T10:46:59;10.50;;;6.95;;
50219;SDS011;36110;51.536;7.562;2024-02-26T10:49:25;4.75;;;3.85;;
50219;SDS011;36110;51.536;7.562;2024-02-26T10:51:52;12.07;;;8.00;;
50219;SDS011;36110;51.536;7.562;2024-02-26T10:54:24;9.82;;;6.63;;
50219;SDS011;36110;51.536;7.562;2024-02-26T10:56:52;12.50;;;6.57;;
50219;SDS011;36110;51.536;7.562;2024-02-26T10:59:18;4.88;;;4.38;;
50219;SDS011;36110;51.536;7.562;2024-02-26T11:01:46;11.45;;;7.55;;
50219;SDS011;36110;51.536;7.562;2024-02-26T11:04:13;8.75;;;6.60;;
50219;SDS011;36110;51.536;7.562;2024-02-26T11:06:38;8.85;;;6.70;;
50219;SDS011;36110;51.536;7.562;2024-02-26T11:09:03;8.40;;;6.20;;
50219;SDS011;36110;51.536;7.562;2024-02-26T11:11:30;7.82;;;6.57;;
50219;SDS011;36110;51.536;7.562;2024-02-26T11:13:57;9.70;;;6.35;;
50219;SDS011;36110;51.536;7.562;2024-02-26T11:16:23;7.03;;;4.72;;
50219;SDS011;36110;51.536;7.562;2024-02-26T11:18:49;9.52;;;6.55;;
50219;SDS011;36110;51.536;7.562;2024-02-26T11:21:18;6.75;;;5.57;;
50219;SDS011;36110;51.536;7.562;2024-02-26T11:23:47;9.70;;;6.55;;
50219;SDS011;36110;51.536;7.562;2024-02-26T11:26:13;6.80;;;5.78;;
50219;SDS011;36110;51.536;7.562;2024-02-26T11:28:39;10.05;;;5.95;;
50219;SDS011;36110;51.536;7.562;2024-02-26T11:31:05;6.90;;;5.40;;
50219;SDS011;36110;51.536;7.562;2024-02-26T11:33:32;8.85;;;5.60;;
50219;SDS011;36110;51.536;7.562;2024-02-26T11:35:57;6.18;;;4.78;;
50219;SDS011;36110;51.536;7.562;2024-02-26T11:38:26;6.72;;;5.32;;
50219;SDS011;36110;51.536;7.562;2024-02-26T11:40:52;6.88;;;5.28;;
50219;SDS011;36110;51.536;7.562;2024-02-26T11:43:18;4.95;;;4.30;;
50219;SDS011;36110;51.536;7.562;2024-02-26T11:48:13;7.50;;;4.70;;
50219;SDS011;36110;51.536;7.562;2024-02-26T11:50:41;5.95;;;4.90;;
50219;SDS011;36110;51.536;7.562;2024-02-26T11:58:42;6.47;;;5.13;;
50219;SDS011;36110;51.536;7.562;2024-02-26T12:01:53;8.23;;;5.82;;
50219;SDS011;36110;51.536;7.562;2024-02-26T12:04:02;6.35;;;5.13;;
50219;SDS011;36110;51.536;7.562;2024-02-26T12:06:29;7.43;;;5.88;;
50219;SDS011;36110;51.536;7.562;2024-02-26T12:08:55;10.52;;;6.60;;
50219;SDS011;36110;51.536;7.562;2024-02-26T12:11:21;10.20;;;6.38;;
50219;SDS011;36110;51.536;7.562;2024-02-26T12:13:46;4.50;;;2.97;;
50219;SDS011;36110;51.536;7.562;2024-02-26T12:16:21;18.08;;;9.18;;
50219;SDS011;36110;51.536;7.562;2024-02-26T12:19:07;7.97;;;6.35;;
50219;SDS011;36110;51.536;7.562;2024-02-26T12:21:36;10.73;;;8.30;;
50219;SDS011;36110;51.536;7.562;2024-02-26T12:24:12;9.15;;;8.15;;
50219;SDS011;36110;51.536;7.562;2024-02-26T12:26:39;11.90;;;8.98;;
50219;SDS011;36110;51.536;7.562;2024-02-26T12:29:04;13.30;;;8.80;;
50219;SDS011;36110;51.536;7.562;2024-02-26T12:31:30;8.70;;;6.93;;
50219;SDS011;36110;51.536;7.562;2024-02-26T12:33:57;12.80;;;8.80;;
50219;SDS011;36110;51.536;7.562;2024-02-26T12:36:22;12.05;;;9.55;;
50219;SDS011;36110;51.536;7.562;2024-02-26T12:38:50;12.45;;;9.00;;
50219;SDS011;36110;51.536;7.562;2024-02-26T12:41:16;13.18;;;9.68;;
50219;SDS011;36110;51.536;7.562;2024-02-26T12:43:42;11.70;;;9.65;;
50219;SDS011;36110;51.536;7.562;2024-02-26T12:46:07;12.20;;;9.00;;
50219;SDS011;36110;51.536;7.562;2024-02-26T12:48:33;12.70;;;10.20;;
50219;SDS011;36110;51.536;7.562;2024-02-26T12:50:58;9.95;;;7.32;;
50219;SDS011;36110;51.536;7.562;2024-02-26T12:53:24;12.77;;;9.23;;
50219;SDS011;36110;51.536;7.562;2024-02-26T12:55:50;9.77;;;7.93;;
50219;SDS011;36110;51.536;7.562;2024-02-26T12:58:16;6.43;;;5.75;;
50219;SDS011;36110;51.536;7.562;2024-02-26T13:00:41;11.50;;;9.45;;
50219;SDS011;36110;51.536;7.562;2024-02-26T13:03:07;10.15;;;8.07;;
50219;SDS011;36110;51.536;7.562;2024-02-26T13:05:32;11.75;;;8.05;;
50219;SDS011;36110;51.536;7.562;2024-02-26T13:07:58;5.43;;;4.57;;
50219;SDS011;36110;51.536;7.562;2024-02-26T13:10:24;4.70;;;4.00;;
50219;SDS011;36110;51.536;7.562;2024-02-26T13:12:50;10.70;;;7.22;;
50219;SDS011;36110;51.536;7.562;2024-02-26T13:15:17;9.63;;;6.93;;
50219;SDS011;36110;51.536;7.562;2024-02-26T13:17:43;9.90;;;8.02;;
50219;SDS011;36110;51.536;7.562;2024-02-26T13:20:09;9.85;;;7.85;;
50219;SDS011;36110;51.536;7.562;2024-02-26T13:22:35;8.93;;;6.43;;
50219;SDS011;36110;51.536;7.562;2024-02-26T13:25:00;7.00;;;5.68;;
50219;SDS011;36110;51.536;7.562;2024-02-26T13:27:28;11.60;;;6.90;;
50219;SDS011;36110;51.536;7.562;2024-02-26T13:30:11;9.55;;;7.15;;
50219;SDS011;36110;51.536;7.562;2024-02-26T13:32:38;8.45;;;7.10;;
50219;SDS011;36110;51.536;7.562;2024-02-26T13:35:11;9.80;;;7.25;;
50219;SDS011;36110;51.536;7.562;2024-02-26T13:37:37;6.82;;;5.03;;
50219;SDS011;36110;51.536;7.562;2024-02-26T13:40:04;9.63;;;6.88;;
50219;SDS011;36110;51.536;7.562;2024-02-26T13:42:34;8.50;;;6.38;;
50219;SDS011;36110;51.536;7.562;2024-02-26T13:44:59;6.97;;;5.30;;
50219;SDS011;36110;51.536;7.562;2024-02-26T13:47:25;9.90;;;7.22;;
50219;SDS011;36110;51.536;7.562;2024-02-26T13:49:50;8.00;;;6.63;;
50219;SDS011;36110;51.536;7.562;2024-02-26T13:52:16;14.30;;;7.82;;
50219;SDS011;36110;51.536;7.562;2024-02-26T13:54:41;9.65;;;6.68;;
50219;SDS011;36110;51.536;7.562;2024-02-26T13:57:07;10.80;;;6.47;;
50219;SDS011;36110;51.536;7.562;2024-02-26T13:59:33;9.05;;;6.90;;
50219;SDS011;36110;51.536;7.562;2024-02-26T14:01:58;8.52;;;6.93;;
50219;SDS011;36110;51.536;7.562;2024-02-26T14:04:24;8.52;;;6.72;;
50219;SDS011;36110;51.536;7.562;2024-02-26T14:06:55;6.35;;;5.03;;
50219;SDS011;36110;51.536;7.562;2024-02-26T14:09:20;11.25;;;7.78;;
50219;SDS011;36110;51.536;7.562;2024-02-26T14:11:46;9.52;;;7.07;;
50219;SDS011;36110;51.536;7.562;2024-02-26T14:14:11;11.70;;;7.50;;
50219;SDS011;36110;51.536;7.562;2024-02-26T14:16:42;9.25;;;6.93;;
50219;SDS011;36110;51.536;7.562;2024-02-26T14:19:08;8.05;;;7.00;;
50219;SDS011;36110;51.536;7.562;2024-02-26T14:21:33;9.90;;;7.53;;
50219;SDS011;36110;51.536;7.562;2024-02-26T14:24:03;8.60;;;7.03;;
50219;SDS011;36110;51.536;7.562;2024-02-26T14:26:31;10.68;;;8.30;;
50219;SDS011;36110;51.536;7.562;2024-02-26T14:28:57;8.90;;;7.32;;
50219;SDS011;36110;51.536;7.562;2024-02-26T14:31:22;8.13;;;6.72;;
50219;SDS011;36110;51.536;7.562;2024-02-26T14:33:48;7.57;;;6.43;;
50219;SDS011;36110;51.536;7.562;2024-02-26T14:36:13;6.72;;;5.80;;
50219;SDS011;36110;51.536;7.562;2024-02-26T14:38:39;6.72;;;5.40;;
50219;SDS011;36110;51.536;7.562;2024-02-26T14:41:04;7.25;;;6.07;;
50219;SDS011;36110;51.536;7.562;2024-02-26T14:43:30;6.25;;;5.03;;
50219;SDS011;36110;51.536;7.562;2024-02-26T14:45:59;6.00;;;3.85;;